sensor_id;sensor_type;location;lat;lon;timestamp;temperature;humidity
75217;HTU21D;63800;51.972;5.682;2023-02-15T00:01:49;4.10;92.52
75217;HTU21D;63800;51.972;5.682;2023-02-15T00:04:19;4.13;92.23
75217;HTU21D;63800;51.972;5.682;2023-02-15T00:06:44;4.10;91.51
75217;HTU21D;63800;51.972;5.682;2023-02-15T00:09:13;3.83;93.19
75217;HTU21D;63800;51.972;5.682;2023-02-15T00:11:38;3.69;93.61
75217;HTU21D;63800;51.972;5.682;2023-02-15T00:16:43;3.55;94.27
75217;HTU21D;63800;51.972;5.682;2023-02-15T00:19:09;3.42;95.41
75217;HTU21D;63800;51.972;5.682;2023-02-15T00:21:36;3.52;95.33
75217;HTU21D;63800;51.972;5.682;2023-02-15T00:24:04;3.53;95.63
75217;HTU21D;63800;51.972;5.682;2023-02-15T00:26:30;3.40;96.13
75217;HTU21D;63800;51.972;5.682;2023-02-15T00:28:56;3.79;94.62
75217;HTU21D;63800;51.972;5.682;2023-02-15T00:31:23;3.92;93.64
75217;HTU21D;63800;51.972;5.682;2023-02-15T00:33:49;3.80;94.73
75217;HTU21D;63800;51.972;5.682;2023-02-15T00:36:14;3.69;95.14
75217;HTU21D;63800;51.972;5.682;2023-02-15T00:38:40;3.73;94.17
75217;HTU21D;63800;51.972;5.682;2023-02-15T00:41:06;3.74;93.66
75217;HTU21D;63800;51.972;5.682;2023-02-15T00:43:33;3.63;93.85
75217;HTU21D;63800;51.972;5.682;2023-02-15T00:45:59;3.44;93.85
75217;HTU21D;63800;51.972;5.682;2023-02-15T00:48:26;3.45;93.83
75217;HTU21D;63800;51.972;5.682;2023-02-15T00:50:56;3.49;93.10
75217;HTU21D;63800;51.972;5.682;2023-02-15T00:53:25;3.43;93.11
75217;HTU21D;63800;51.972;5.682;2023-02-15T00:55:50;3.26;94.52
75217;HTU21D;63800;51.972;5.682;2023-02-15T00:58:16;3.15;95.32
75217;HTU21D;63800;51.972;5.682;2023-02-15T01:00:46;3.10;95.95
75217;HTU21D;63800;51.972;5.682;2023-02-15T01:03:14;3.01;96.86
75217;HTU21D;63800;51.972;5.682;2023-02-15T01:05:40;2.95;97.13
75217;HTU21D;63800;51.972;5.682;2023-02-15T01:08:05;3.09;97.69
75217;HTU21D;63800;51.972;5.682;2023-02-15T01:10:33;3.16;95.52
75217;HTU21D;63800;51.972;5.682;2023-02-15T01:12:58;3.18;95.59
75217;HTU21D;63800;51.972;5.682;2023-02-15T01:15:24;3.28;94.95
75217;HTU21D;63800;51.972;5.682;2023-02-15T01:17:50;3.20;94.39
75217;HTU21D;63800;51.972;5.682;2023-02-15T01:20:24;3.19;95.17
75217;HTU21D;63800;51.972;5.682;2023-02-15T01:22:51;3.21;94.44
75217;HTU21D;63800;51.972;5.682;2023-02-15T01:25:17;3.20;94.23
75217;HTU21D;63800;51.972;5.682;2023-02-15T01:27:43;3.19;95.41
75217;HTU21D;63800;51.972;5.682;2023-02-15T01:30:09;3.11;95.10
75217;HTU21D;63800;51.972;5.682;2023-02-15T01:32:35;3.10;93.94
75217;HTU21D;63800;51.972;5.682;2023-02-15T01:35:00;3.14;94.20
75217;HTU21D;63800;51.972;5.682;2023-02-15T01:37:26;3.25;93.52
75217;HTU21D;63800;51.972;5.682;2023-02-15T01:39:51;3.20;93.98
75217;HTU21D;63800;51.972;5.682;2023-02-15T01:42:22;3.08;93.95
75217;HTU21D;63800;51.972;5.682;2023-02-15T01:50:30;3.20;93.31
75217;HTU21D;63800;51.972;5.682;2023-02-15T01:53:20;3.46;93.11
75217;HTU21D;63800;51.972;5.682;2023-02-15T01:55:52;3.38;93.63
75217;HTU21D;63800;51.972;5.682;2023-02-15T01:58:19;3.29;93.62
75217;HTU21D;63800;51.972;5.682;2023-02-15T02:00:46;3.27;93.55
75217;HTU21D;63800;51.972;5.682;2023-02-15T02:03:12;3.35;93.06
75217;HTU21D;63800;51.972;5.682;2023-02-15T02:05:38;3.35;92.63
75217;HTU21D;63800;51.972;5.682;2023-02-15T02:08:04;3.38;92.07
75217;HTU21D;63800;51.972;5.682;2023-02-15T02:10:29;3.35;92.74
75217;HTU21D;63800;51.972;5.682;2023-02-15T02:12:58;3.43;92.18
75217;HTU21D;63800;51.972;5.682;2023-02-15T02:15:54;3.31;92.56
75217;HTU21D;63800;51.972;5.682;2023-02-15T02:18:48;3.31;92.69
75217;HTU21D;63800;51.972;5.682;2023-02-15T02:27:29;3.05;93.13
75217;HTU21D;63800;51.972;5.682;2023-02-15T02:33:17;3.00;94.17
75217;HTU21D;63800;51.972;5.682;2023-02-15T02:38:45;2.94;93.06
75217;HTU21D;63800;51.972;5.682;2023-02-15T02:44:17;2.81;93.33
75217;HTU21D;63800;51.972;5.682;2023-02-15T02:49:12;2.76;93.16
75217;HTU21D;63800;51.972;5.682;2023-02-15T02:51:37;2.53;94.68
75217;HTU21D;63800;51.972;5.682;2023-02-15T02:54:05;2.32;95.08
75217;HTU21D;63800;51.972;5.682;2023-02-15T03:01:43;2.75;94.17
75217;HTU21D;63800;51.972;5.682;2023-02-15T03:04:13;2.78;94.19
75217;HTU21D;63800;51.972;5.682;2023-02-15T03:07:05;2.76;93.52
75217;HTU21D;63800;51.972;5.682;2023-02-15T03:09:50;2.81;92.53
75217;HTU21D;63800;51.972;5.682;2023-02-15T03:12:22;2.57;92.73
75217;HTU21D;63800;51.972;5.682;2023-02-15T03:14:53;2.27;94.42
75217;HTU21D;63800;51.972;5.682;2023-02-15T03:17:22;2.13;94.46
75217;HTU21D;63800;51.972;5.682;2023-02-15T03:19:50;2.13;94.69
75217;HTU21D;63800;51.972;5.682;2023-02-15T03:22:21;2.36;94.31
75217;HTU21D;63800;51.972;5.682;2023-02-15T03:25:02;2.28;93.95
75217;HTU21D;63800;51.972;5.682;2023-02-15T03:27:42;2.12;94.68
75217;HTU21D;63800;51.972;5.682;2023-02-15T03:30:10;2.13;93.59
75217;HTU21D;63800;51.972;5.682;2023-02-15T03:32:37;2.12;94.33
75217;HTU21D;63800;51.972;5.682;2023-02-15T03:35:04;2.02;94.02
75217;HTU21D;63800;51.972;5.682;2023-02-15T03:37:35;1.91;94.99
75217;HTU21D;63800;51.972;5.682;2023-02-15T03:42:58;1.97;96.52
75217;HTU21D;63800;51.972;5.682;2023-02-15T03:45:28;2.08;96.84
75217;HTU21D;63800;51.972;5.682;2023-02-15T03:47:56;2.40;96.18
75217;HTU21D;63800;51.972;5.682;2023-02-15T03:50:31;2.60;93.80
75217;HTU21D;63800;51.972;5.682;2023-02-15T03:53:18;2.67;93.70
75217;HTU21D;63800;51.972;5.682;2023-02-15T03:55:49;2.60;93.70
75217;HTU21D;63800;51.972;5.682;2023-02-15T03:58:18;2.61;94.23
75217;HTU21D;63800;51.972;5.682;2023-02-15T04:01:13;2.43;94.16
75217;HTU21D;63800;51.972;5.682;2023-02-15T04:04:01;2.49;94.09
75217;HTU21D;63800;51.972;5.682;2023-02-15T04:06:29;2.49;93.67
75217;HTU21D;63800;51.972;5.682;2023-02-15T04:08:54;2.52;93.86
75217;HTU21D;63800;51.972;5.682;2023-02-15T04:11:38;2.53;93.45
75217;HTU21D;63800;51.972;5.682;2023-02-15T04:14:04;2.57;93.70
75217;HTU21D;63800;51.972;5.682;2023-02-15T04:16:49;2.57;93.59
75217;HTU21D;63800;51.972;5.682;2023-02-15T04:19:15;2.55;93.10
75217;HTU21D;63800;51.972;5.682;2023-02-15T04:21:59;2.54;93.57
75217;HTU21D;63800;51.972;5.682;2023-02-15T04:24:43;2.62;93.16
75217;HTU21D;63800;51.972;5.682;2023-02-15T04:27:27;2.68;92.76
75217;HTU21D;63800;51.972;5.682;2023-02-15T04:29:52;2.57;93.62
75217;HTU21D;63800;51.972;5.682;2023-02-15T04:32:17;2.64;93.84
75217;HTU21D;63800;51.972;5.682;2023-02-15T04:34:43;2.73;93.81
75217;HTU21D;63800;51.972;5.682;2023-02-15T04:37:08;2.72;93.77
75217;HTU21D;63800;51.972;5.682;2023-02-15T04:39:35;2.76;92.97
75217;HTU21D;63800;51.972;5.682;2023-02-15T04:42:00;2.74;93.36
75217;HTU21D;63800;51.972;5.682;2023-02-15T04:44:26;2.89;92.27
75217;HTU21D;63800;51.972;5.682;2023-02-15T04:46:51;2.82;92.69
75217;HTU21D;63800;51.972;5.682;2023-02-15T04:49:17;2.94;92.72
75217;HTU21D;63800;51.972;5.682;2023-02-15T04:51:42;2.99;92.78
75217;HTU21D;63800;51.972;5.682;2023-02-15T04:54:08;3.02;93.34
75217;HTU21D;63800;51.972;5.682;2023-02-15T04:56:33;3.04;92.29
75217;HTU21D;63800;51.972;5.682;2023-02-15T04:59:00;2.97;92.17
75217;HTU21D;63800;51.972;5.682;2023-02-15T05:01:26;3.03;91.95
75217;HTU21D;63800;51.972;5.682;2023-02-15T05:03:52;3.00;91.77
75217;HTU21D;63800;51.972;5.682;2023-02-15T05:06:17;2.96;93.02
75217;HTU21D;63800;51.972;5.682;2023-02-15T05:08:42;2.91;93.18
75217;HTU21D;63800;51.972;5.682;2023-02-15T05:11:08;3.19;91.10
75217;HTU21D;63800;51.972;5.682;2023-02-15T05:13:33;3.26;91.79
75217;HTU21D;63800;51.972;5.682;2023-02-15T05:15:59;3.01;91.76
75217;HTU21D;63800;51.972;5.682;2023-02-15T05:18:24;2.90;92.22
75217;HTU21D;63800;51.972;5.682;2023-02-15T05:20:50;2.76;92.82
75217;HTU21D;63800;51.972;5.682;2023-02-15T05:23:15;2.81;92.95
75217;HTU21D;63800;51.972;5.682;2023-02-15T05:25:41;2.91;92.52
75217;HTU21D;63800;51.972;5.682;2023-02-15T05:28:27;2.94;91.76
75217;HTU21D;63800;51.972;5.682;2023-02-15T05:31:06;2.91;91.98
75217;HTU21D;63800;51.972;5.682;2023-02-15T05:33:33;3.09;90.81
75217;HTU21D;63800;51.972;5.682;2023-02-15T05:35:59;3.02;92.57
75217;HTU21D;63800;51.972;5.682;2023-02-15T05:38:24;2.89;93.32
75217;HTU21D;63800;51.972;5.682;2023-02-15T05:40:50;3.12;91.86
75217;HTU21D;63800;51.972;5.682;2023-02-15T05:43:16;3.03;92.90
75217;HTU21D;63800;51.972;5.682;2023-02-15T05:45:48;2.99;92.68
75217;HTU21D;63800;51.972;5.682;2023-02-15T05:48:15;2.96;92.73
75217;HTU21D;63800;51.972;5.682;2023-02-15T05:50:40;2.95;92.05
75217;HTU21D;63800;51.972;5.682;2023-02-15T05:53:06;2.89;92.39
75217;HTU21D;63800;51.972;5.682;2023-02-15T05:55:31;2.88;92.91
75217;HTU21D;63800;51.972;5.682;2023-02-15T05:57:57;2.69;93.47
75217;HTU21D;63800;51.972;5.682;2023-02-15T06:00:22;2.79;92.71
75217;HTU21D;63800;51.972;5.682;2023-02-15T06:02:48;2.74;92.92
75217;HTU21D;63800;51.972;5.682;2023-02-15T06:05:14;2.79;92.63
75217;HTU21D;63800;51.972;5.682;2023-02-15T06:07:42;3.03;91.14
75217;HTU21D;63800;51.972;5.682;2023-02-15T06:10:08;2.94;91.76
75217;HTU21D;63800;51.972;5.682;2023-02-15T06:12:34;3.00;91.56
75217;HTU21D;63800;51.972;5.682;2023-02-15T06:14:59;3.01;91.11
75217;HTU21D;63800;51.972;5.682;2023-02-15T06:17:25;2.78;91.94
75217;HTU21D;63800;51.972;5.682;2023-02-15T06:19:50;2.64;92.51
75217;HTU21D;63800;51.972;5.682;2023-02-15T06:22:16;2.66;92.63
75217;HTU21D;63800;51.972;5.682;2023-02-15T06:24:41;2.66;92.83
75217;HTU21D;63800;51.972;5.682;2023-02-15T06:27:09;2.78;92.34
75217;HTU21D;63800;51.972;5.682;2023-02-15T06:29:35;2.67;92.43
75217;HTU21D;63800;51.972;5.682;2023-02-15T06:32:00;2.79;91.61
75217;HTU21D;63800;51.972;5.682;2023-02-15T06:34:26;2.58;91.98
75217;HTU21D;63800;51.972;5.682;2023-02-15T06:36:51;2.47;92.88
75217;HTU21D;63800;51.972;5.682;2023-02-15T06:39:17;2.60;92.64
75217;HTU21D;63800;51.972;5.682;2023-02-15T06:41:42;2.56;92.65
75217;HTU21D;63800;51.972;5.682;2023-02-15T06:44:08;2.56;93.40
75217;HTU21D;63800;51.972;5.682;2023-02-15T06:46:34;2.69;92.42
75217;HTU21D;63800;51.972;5.682;2023-02-15T06:48:59;2.64;92.37
75217;HTU21D;63800;51.972;5.682;2023-02-15T06:51:25;2.75;91.54
75217;HTU21D;63800;51.972;5.682;2023-02-15T06:53:50;2.84;91.39
75217;HTU21D;63800;51.972;5.682;2023-02-15T06:56:16;2.75;91.66
75217;HTU21D;63800;51.972;5.682;2023-02-15T06:58:42;2.60;92.63
75217;HTU21D;63800;51.972;5.682;2023-02-15T07:01:08;2.69;92.00
75217;HTU21D;63800;51.972;5.682;2023-02-15T07:03:35;2.86;91.48
75217;HTU21D;63800;51.972;5.682;2023-02-15T07:06:02;2.68;91.85
75217;HTU21D;63800;51.972;5.682;2023-02-15T07:08:31;2.72;91.09
75217;HTU21D;63800;51.972;5.682;2023-02-15T07:10:56;2.61;91.92
75217;HTU21D;63800;51.972;5.682;2023-02-15T07:13:46;2.61;91.67
75217;HTU21D;63800;51.972;5.682;2023-02-15T07:16:12;2.71;91.29
75217;HTU21D;63800;51.972;5.682;2023-02-15T07:18:38;2.81;90.60
75217;HTU21D;63800;51.972;5.682;2023-02-15T07:21:04;2.75;91.05
75217;HTU21D;63800;51.972;5.682;2023-02-15T07:23:29;2.84;90.95
75217;HTU21D;63800;51.972;5.682;2023-02-15T07:26:01;3.14;89.17
75217;HTU21D;63800;51.972;5.682;2023-02-15T07:28:27;3.08;89.15
75217;HTU21D;63800;51.972;5.682;2023-02-15T07:30:53;3.06;89.43
75217;HTU21D;63800;51.972;5.682;2023-02-15T07:33:18;3.08;89.41
75217;HTU21D;63800;51.972;5.682;2023-02-15T07:35:57;3.19;88.67
75217;HTU21D;63800;51.972;5.682;2023-02-15T07:38:23;3.38;87.13
75217;HTU21D;63800;51.972;5.682;2023-02-15T07:40:50;3.28;87.73
75217;HTU21D;63800;51.972;5.682;2023-02-15T07:43:15;3.31;87.78
75217;HTU21D;63800;51.972;5.682;2023-02-15T07:45:41;3.03;89.52
75217;HTU21D;63800;51.972;5.682;2023-02-15T07:48:06;3.29;87.86
75217;HTU21D;63800;51.972;5.682;2023-02-15T07:50:32;3.23;88.02
75217;HTU21D;63800;51.972;5.682;2023-02-15T07:52:58;3.08;89.44
75217;HTU21D;63800;51.972;5.682;2023-02-15T07:55:24;3.10;89.06
75217;HTU21D;63800;51.972;5.682;2023-02-15T07:57:51;3.45;87.26
75217;HTU21D;63800;51.972;5.682;2023-02-15T08:00:18;3.24;88.41
75217;HTU21D;63800;51.972;5.682;2023-02-15T08:02:49;3.36;88.00
75217;HTU21D;63800;51.972;5.682;2023-02-15T08:05:34;3.40;87.72
75217;HTU21D;63800;51.972;5.682;2023-02-15T08:08:00;3.44;87.16
75217;HTU21D;63800;51.972;5.682;2023-02-15T08:10:25;3.55;86.17
75217;HTU21D;63800;51.972;5.682;2023-02-15T08:13:11;3.50;86.76
75217;HTU21D;63800;51.972;5.682;2023-02-15T08:15:36;3.50;86.59
75217;HTU21D;63800;51.972;5.682;2023-02-15T08:18:01;3.52;86.64
75217;HTU21D;63800;51.972;5.682;2023-02-15T08:20:27;3.49;86.41
75217;HTU21D;63800;51.972;5.682;2023-02-15T08:22:52;3.50;86.80
75217;HTU21D;63800;51.972;5.682;2023-02-15T08:25:18;3.60;86.61
75217;HTU21D;63800;51.972;5.682;2023-02-15T08:27:43;3.70;85.96
75217;HTU21D;63800;51.972;5.682;2023-02-15T08:30:09;3.80;85.32
75217;HTU21D;63800;51.972;5.682;2023-02-15T08:32:35;3.57;87.04
75217;HTU21D;63800;51.972;5.682;2023-02-15T08:35:00;3.70;86.31
75217;HTU21D;63800;51.972;5.682;2023-02-15T08:37:26;3.70;86.29
75217;HTU21D;63800;51.972;5.682;2023-02-15T08:39:51;3.72;86.44
75217;HTU21D;63800;51.972;5.682;2023-02-15T08:42:17;3.70;87.04
75217;HTU21D;63800;51.972;5.682;2023-02-15T08:44:42;3.52;88.36
75217;HTU21D;63800;51.972;5.682;2023-02-15T08:47:08;3.60;87.57
75217;HTU21D;63800;51.972;5.682;2023-02-15T08:49:33;3.98;86.17
75217;HTU21D;63800;51.972;5.682;2023-02-15T08:51:59;4.01;85.95
75217;HTU21D;63800;51.972;5.682;2023-02-15T08:54:25;4.19;84.84
75217;HTU21D;63800;51.972;5.682;2023-02-15T08:56:53;4.20;85.12
75217;HTU21D;63800;51.972;5.682;2023-02-15T08:59:20;4.21;85.33
75217;HTU21D;63800;51.972;5.682;2023-02-15T09:01:47;4.16;86.09
75217;HTU21D;63800;51.972;5.682;2023-02-15T09:04:13;4.21;85.78
75217;HTU21D;63800;51.972;5.682;2023-02-15T09:06:41;4.37;85.40
75217;HTU21D;63800;51.972;5.682;2023-02-15T09:09:08;4.52;84.88
75217;HTU21D;63800;51.972;5.682;2023-02-15T09:11:37;4.51;85.36
75217;HTU21D;63800;51.972;5.682;2023-02-15T09:14:08;4.03;86.88
75217;HTU21D;63800;51.972;5.682;2023-02-15T09:16:37;4.04;88.60
75217;HTU21D;63800;51.972;5.682;2023-02-15T09:19:03;4.42;86.22
75217;HTU21D;63800;51.972;5.682;2023-02-15T09:21:34;4.59;85.80
75217;HTU21D;63800;51.972;5.682;2023-02-15T09:24:02;4.72;85.02
75217;HTU21D;63800;51.972;5.682;2023-02-15T09:26:29;4.71;85.12
75217;HTU21D;63800;51.972;5.682;2023-02-15T09:28:58;4.64;84.93
75217;HTU21D;63800;51.972;5.682;2023-02-15T09:31:27;4.78;85.38
75217;HTU21D;63800;51.972;5.682;2023-02-15T09:33:53;4.93;84.38
75217;HTU21D;63800;51.972;5.682;2023-02-15T09:38:55;5.12;84.21
75217;HTU21D;63800;51.972;5.682;2023-02-15T09:46:45;5.11;84.47
75217;HTU21D;63800;51.972;5.682;2023-02-15T09:58:37;5.20;84.08
75217;HTU21D;63800;51.972;5.682;2023-02-15T10:01:35;5.08;84.57
75217;HTU21D;63800;51.972;5.682;2023-02-15T10:12:32;5.90;79.62
75217;HTU21D;63800;51.972;5.682;2023-02-15T10:26:28;6.65;78.02
75217;HTU21D;63800;51.972;5.682;2023-02-15T10:29:22;6.96;76.32
75217;HTU21D;63800;51.972;5.682;2023-02-15T10:32:09;6.79;76.59
75217;HTU21D;63800;51.972;5.682;2023-02-15T10:34:39;6.89;75.16
75217;HTU21D;63800;51.972;5.682;2023-02-15T10:47:55;7.37;74.90
75217;HTU21D;63800;51.972;5.682;2023-02-15T10:51:00;7.33;74.35
75217;HTU21D;63800;51.972;5.682;2023-02-15T10:57:09;8.27;72.54
75217;HTU21D;63800;51.972;5.682;2023-02-15T11:07:55;8.70;69.43
75217;HTU21D;63800;51.972;5.682;2023-02-15T11:10:53;9.26;67.50
75217;HTU21D;63800;51.972;5.682;2023-02-15T11:13:22;9.48;66.20
75217;HTU21D;63800;51.972;5.682;2023-02-15T11:18:30;8.96;68.02
75217;HTU21D;63800;51.972;5.682;2023-02-15T11:21:13;9.27;66.47
75217;HTU21D;63800;51.972;5.682;2023-02-15T11:23:44;9.71;65.68
75217;HTU21D;63800;51.972;5.682;2023-02-15T11:26:33;9.83;65.17
75217;HTU21D;63800;51.972;5.682;2023-02-15T11:29:05;10.35;64.38
75217;HTU21D;63800;51.972;5.682;2023-02-15T11:31:44;10.36;64.42
75217;HTU21D;63800;51.972;5.682;2023-02-15T11:36:58;9.95;65.94
75217;HTU21D;63800;51.972;5.682;2023-02-15T11:39:28;9.82;67.10
75217;HTU21D;63800;51.972;5.682;2023-02-15T11:41:58;10.23;65.60
75217;HTU21D;63800;51.972;5.682;2023-02-15T11:44:29;11.09;62.99
75217;HTU21D;63800;51.972;5.682;2023-02-15T11:46:58;10.62;65.14
75217;HTU21D;63800;51.972;5.682;2023-02-15T11:49:34;10.60;63.93
75217;HTU21D;63800;51.972;5.682;2023-02-15T11:52:07;11.23;64.87
75217;HTU21D;63800;51.972;5.682;2023-02-15T11:54:37;11.92;61.12
75217;HTU21D;63800;51.972;5.682;2023-02-15T11:57:15;11.71;60.78
75217;HTU21D;63800;51.972;5.682;2023-02-15T11:59:48;11.84;60.71
75217;HTU21D;63800;51.972;5.682;2023-02-15T12:02:20;10.83;62.73
75217;HTU21D;63800;51.972;5.682;2023-02-15T12:04:56;11.31;63.27
75217;HTU21D;63800;51.972;5.682;2023-02-15T12:07:27;13.08;58.58
75217;HTU21D;63800;51.972;5.682;2023-02-15T12:13:13;12.34;60.61
75217;HTU21D;63800;51.972;5.682;2023-02-15T12:15:43;13.46;57.10
75217;HTU21D;63800;51.972;5.682;2023-02-15T12:18:34;13.59;55.78
75217;HTU21D;63800;51.972;5.682;2023-02-15T12:21:15;12.96;57.29
75217;HTU21D;63800;51.972;5.682;2023-02-15T12:23:52;13.29;56.75
75217;HTU21D;63800;51.972;5.682;2023-02-15T12:26:32;13.03;56.14
75217;HTU21D;63800;51.972;5.682;2023-02-15T12:29:02;13.65;55.33
75217;HTU21D;63800;51.972;5.682;2023-02-15T12:31:44;13.82;54.80
75217;HTU21D;63800;51.972;5.682;2023-02-15T12:34:32;14.08;55.00
75217;HTU21D;63800;51.972;5.682;2023-02-15T12:37:09;15.56;50.43
75217;HTU21D;63800;51.972;5.682;2023-02-15T12:39:35;14.89;52.17
75217;HTU21D;63800;51.972;5.682;2023-02-15T12:44:34;15.95;49.92
75217;HTU21D;63800;51.972;5.682;2023-02-15T12:47:23;16.76;48.24
75217;HTU21D;63800;51.972;5.682;2023-02-15T12:52:43;16.75;48.08
75217;HTU21D;63800;51.972;5.682;2023-02-15T12:55:22;14.85;52.99
75217;HTU21D;63800;51.972;5.682;2023-02-15T12:57:48;15.26;51.96
75217;HTU21D;63800;51.972;5.682;2023-02-15T13:02:47;15.90;48.79
75217;HTU21D;63800;51.972;5.682;2023-02-15T13:07:51;14.80;51.97
75217;HTU21D;63800;51.972;5.682;2023-02-15T13:10:23;13.94;52.49
75217;HTU21D;63800;51.972;5.682;2023-02-15T13:12:51;12.99;55.58
75217;HTU21D;63800;51.972;5.682;2023-02-15T13:15:28;13.40;56.06
75217;HTU21D;63800;51.972;5.682;2023-02-15T13:17:57;12.53;56.81
75217;HTU21D;63800;51.972;5.682;2023-02-15T13:20:25;12.94;56.42
75217;HTU21D;63800;51.972;5.682;2023-02-15T13:22:58;13.55;55.33
75217;HTU21D;63800;51.972;5.682;2023-02-15T13:25:27;12.56;57.37
75217;HTU21D;63800;51.972;5.682;2023-02-15T13:27:57;12.18;58.04
75217;HTU21D;63800;51.972;5.682;2023-02-15T13:30:29;12.01;59.24
75217;HTU21D;63800;51.972;5.682;2023-02-15T13:33:17;12.94;57.48
75217;HTU21D;63800;51.972;5.682;2023-02-15T13:41:05;14.34;52.85
75217;HTU21D;63800;51.972;5.682;2023-02-15T13:46:36;13.50;55.10
75217;HTU21D;63800;51.972;5.682;2023-02-15T13:51:43;13.32;56.61
75217;HTU21D;63800;51.972;5.682;2023-02-15T13:57:21;13.39;56.24
75217;HTU21D;63800;51.972;5.682;2023-02-15T14:00:04;13.56;55.74
75217;HTU21D;63800;51.972;5.682;2023-02-15T14:08:52;12.38;58.93
75217;HTU21D;63800;51.972;5.682;2023-02-15T14:14:29;12.16;60.16
75217;HTU21D;63800;51.972;5.682;2023-02-15T14:19:57;12.17;60.18
75217;HTU21D;63800;51.972;5.682;2023-02-15T14:22:41;12.16;60.74
75217;HTU21D;63800;51.972;5.682;2023-02-15T14:30:29;12.42;60.12
75217;HTU21D;63800;51.972;5.682;2023-02-15T14:32:59;12.36;60.15
75217;HTU21D;63800;51.972;5.682;2023-02-15T14:35:28;12.46;60.38
75217;HTU21D;63800;51.972;5.682;2023-02-15T14:48:52;12.10;60.84
75217;HTU21D;63800;51.972;5.682;2023-02-15T14:56:43;11.98;60.81
75217;HTU21D;63800;51.972;5.682;2023-02-15T14:59:23;11.87;61.60
75217;HTU21D;63800;51.972;5.682;2023-02-15T15:01:56;11.84;61.18
75217;HTU21D;63800;51.972;5.682;2023-02-15T15:12:43;11.81;61.92
75217;HTU21D;63800;51.972;5.682;2023-02-15T15:18:42;11.69;62.25
75217;HTU21D;63800;51.972;5.682;2023-02-15T15:20:54;11.63;62.77
75217;HTU21D;63800;51.972;5.682;2023-02-15T15:37:22;11.38;63.24
75217;HTU21D;63800;51.972;5.682;2023-02-15T15:40:22;11.46;62.86
75217;HTU21D;63800;51.972;5.682;2023-02-15T15:48:42;11.15;64.06
75217;HTU21D;63800;51.972;5.682;2023-02-15T15:51:12;11.20;64.53
75217;HTU21D;63800;51.972;5.682;2023-02-15T15:53:45;11.14;64.30
75217;HTU21D;63800;51.972;5.682;2023-02-15T15:56:21;11.13;64.18
75217;HTU21D;63800;51.972;5.682;2023-02-15T15:58:58;11.15;65.14
75217;HTU21D;63800;51.972;5.682;2023-02-15T16:01:31;11.27;64.19
75217;HTU21D;63800;51.972;5.682;2023-02-15T16:04:00;11.02;66.55
75217;HTU21D;63800;51.972;5.682;2023-02-15T16:06:38;10.85;68.84
75217;HTU21D;63800;51.972;5.682;2023-02-15T16:09:23;10.67;69.23
75217;HTU21D;63800;51.972;5.682;2023-02-15T16:11:52;10.62;69.60
75217;HTU21D;63800;51.972;5.682;2023-02-15T16:14:32;10.58;68.91
75217;HTU21D;63800;51.972;5.682;2023-02-15T16:17:04;10.42;68.40
75217;HTU21D;63800;51.972;5.682;2023-02-15T16:19:34;10.25;69.58
75217;HTU21D;63800;51.972;5.682;2023-02-15T16:22:02;10.23;69.84
75217;HTU21D;63800;51.972;5.682;2023-02-15T16:24:38;10.15;69.81
75217;HTU21D;63800;51.972;5.682;2023-02-15T16:29:34;10.03;70.86
75217;HTU21D;63800;51.972;5.682;2023-02-15T16:34:26;10.06;69.94
75217;HTU21D;63800;51.972;5.682;2023-02-15T16:37:15;10.06;69.57
75217;HTU21D;63800;51.972;5.682;2023-02-15T16:39:42;10.15;67.94
75217;HTU21D;63800;51.972;5.682;2023-02-15T16:42:09;10.18;67.98
75217;HTU21D;63800;51.972;5.682;2023-02-15T16:44:35;10.12;66.96
75217;HTU21D;63800;51.972;5.682;2023-02-15T16:47:01;10.14;67.81
75217;HTU21D;63800;51.972;5.682;2023-02-15T16:49:28;10.11;67.54
75217;HTU21D;63800;51.972;5.682;2023-02-15T16:52:02;10.12;67.48
75217;HTU21D;63800;51.972;5.682;2023-02-15T16:54:31;10.08;67.48
75217;HTU21D;63800;51.972;5.682;2023-02-15T16:56:57;9.98;67.85
75217;HTU21D;63800;51.972;5.682;2023-02-15T16:59:38;10.00;67.70
75217;HTU21D;63800;51.972;5.682;2023-02-15T17:02:17;9.88;68.04
75217;HTU21D;63800;51.972;5.682;2023-02-15T17:04:43;9.96;67.30
75217;HTU21D;63800;51.972;5.682;2023-02-15T17:07:16;9.84;67.94
75217;HTU21D;63800;51.972;5.682;2023-02-15T17:09:53;9.72;67.99
75217;HTU21D;63800;51.972;5.682;2023-02-15T17:12:48;9.82;67.68
75217;HTU21D;63800;51.972;5.682;2023-02-15T17:15:32;9.77;67.86
75217;HTU21D;63800;51.972;5.682;2023-02-15T17:20:40;9.64;68.40
75217;HTU21D;63800;51.972;5.682;2023-02-15T17:25:46;9.38;69.34
75217;HTU21D;63800;51.972;5.682;2023-02-15T17:28:22;9.38;69.51
75217;HTU21D;63800;51.972;5.682;2023-02-15T17:30:50;9.40;69.42
75217;HTU21D;63800;51.972;5.682;2023-02-15T17:33:23;9.33;69.11
75217;HTU21D;63800;51.972;5.682;2023-02-15T17:38:37;9.27;69.36
75217;HTU21D;63800;51.972;5.682;2023-02-15T17:41:03;9.21;69.21
75217;HTU21D;63800;51.972;5.682;2023-02-15T17:43:28;9.12;70.93
75217;HTU21D;63800;51.972;5.682;2023-02-15T17:45:54;9.02;70.29
75217;HTU21D;63800;51.972;5.682;2023-02-15T17:50:55;9.16;70.10
75217;HTU21D;63800;51.972;5.682;2023-02-15T17:53:21;8.94;70.77
75217;HTU21D;63800;51.972;5.682;2023-02-15T17:55:46;8.88;71.35
75217;HTU21D;63800;51.972;5.682;2023-02-15T17:58:14;8.83;71.76
75217;HTU21D;63800;51.972;5.682;2023-02-15T18:00:49;8.81;71.53
75217;HTU21D;63800;51.972;5.682;2023-02-15T18:03:41;8.70;72.44
75217;HTU21D;63800;51.972;5.682;2023-02-15T18:06:26;8.59;72.16
75217;HTU21D;63800;51.972;5.682;2023-02-15T18:09:15;8.57;72.56
75217;HTU21D;63800;51.972;5.682;2023-02-15T18:12:00;8.51;72.55
75217;HTU21D;63800;51.972;5.682;2023-02-15T18:14:26;8.63;71.87
75217;HTU21D;63800;51.972;5.682;2023-02-15T18:16:51;8.53;72.83
75217;HTU21D;63800;51.972;5.682;2023-02-15T18:19:21;8.60;71.97
75217;HTU21D;63800;51.972;5.682;2023-02-15T18:21:47;8.68;72.04
75217;HTU21D;63800;51.972;5.682;2023-02-15T18:24:18;8.77;71.52
75217;HTU21D;63800;51.972;5.682;2023-02-15T18:26:44;8.81;71.98
75217;HTU21D;63800;51.972;5.682;2023-02-15T18:29:10;8.70;72.09
75217;HTU21D;63800;51.972;5.682;2023-02-15T18:31:36;8.62;71.96
75217;HTU21D;63800;51.972;5.682;2023-02-15T18:34:01;8.67;71.74
75217;HTU21D;63800;51.972;5.682;2023-02-15T18:36:32;8.60;71.83
75217;HTU21D;63800;51.972;5.682;2023-02-15T18:39:00;8.61;71.64
75217;HTU21D;63800;51.972;5.682;2023-02-15T18:41:28;8.64;72.27
75217;HTU21D;63800;51.972;5.682;2023-02-15T18:43:53;8.50;72.04
75217;HTU21D;63800;51.972;5.682;2023-02-15T18:46:20;8.45;72.09
75217;HTU21D;63800;51.972;5.682;2023-02-15T18:48:45;8.34;72.70
75217;HTU21D;63800;51.972;5.682;2023-02-15T18:51:20;8.33;72.80
75217;HTU21D;63800;51.972;5.682;2023-02-15T18:53:50;8.51;72.24
75217;HTU21D;63800;51.972;5.682;2023-02-15T18:56:19;8.44;72.10
75217;HTU21D;63800;51.972;5.682;2023-02-15T18:58:46;8.47;72.22
75217;HTU21D;63800;51.972;5.682;2023-02-15T19:01:17;8.44;72.51
75217;HTU21D;63800;51.972;5.682;2023-02-15T19:03:47;8.49;72.29
75217;HTU21D;63800;51.972;5.682;2023-02-15T19:06:33;8.41;72.54
75217;HTU21D;63800;51.972;5.682;2023-02-15T19:08:58;8.43;72.09
75217;HTU21D;63800;51.972;5.682;2023-02-15T19:11:26;8.42;72.29
75217;HTU21D;63800;51.972;5.682;2023-02-15T19:13:52;8.46;72.06
75217;HTU21D;63800;51.972;5.682;2023-02-15T19:16:30;8.43;72.24